createdAt,value
2018-08-20T00:00:38.018Z,23.50
2018-08-20T00:03:05.868Z,23.40
2018-08-20T00:05:36.484Z,23.40
2018-08-20T00:08:04.372Z,23.30
2018-08-20T00:10:32.197Z,23.30
2018-08-20T00:13:00.069Z,23.30
2018-08-20T00:15:27.897Z,23.20
2018-08-20T00:17:55.710Z,23.20
2018-08-20T00:20:23.473Z,23.10
2018-08-20T00:22:52.255Z,23.10
2018-08-20T00:25:20.080Z,23.10
2018-08-20T00:27:49.408Z,23.10
2018-08-20T00:30:18.348Z,23.00
2018-08-20T00:32:47.324Z,23.10
2018-08-20T00:35:17.145Z,23.00
2018-08-20T00:37:47.732Z,23.00
2018-08-20T00:40:15.541Z,23.00
2018-08-20T00:42:43.320Z,22.90
2018-08-20T00:45:11.316Z,23.00
2018-08-20T00:47:39.197Z,23.20
2018-08-20T00:50:08.281Z,23.20
2018-08-20T00:52:36.243Z,23.10
2018-08-20T00:55:05.360Z,23.00
2018-08-20T00:57:33.137Z,22.90
2018-08-20T01:00:01.009Z,22.90
2018-08-20T01:02:29.873Z,22.90
2018-08-20T01:04:58.707Z,22.80
2018-08-20T01:07:27.167Z,22.90
2018-08-20T01:09:55.458Z,22.90
2018-08-20T01:12:23.256Z,22.80
2018-08-20T01:14:51.118Z,22.70
2018-08-20T01:17:18.972Z,22.70
2018-08-20T01:19:46.764Z,22.80
2018-08-20T01:22:14.861Z,22.70
2018-08-20T01:24:42.653Z,22.80
2018-08-20T01:27:15.021Z,22.80
2018-08-20T01:29:43.749Z,22.70
2018-08-20T01:32:11.517Z,22.50
2018-08-20T01:34:39.295Z,22.50
2018-08-20T01:37:07.087Z,22.50
2018-08-20T01:39:34.823Z,22.40
2018-08-20T01:42:02.657Z,22.30
2018-08-20T01:44:30.425Z,22.30
2018-08-20T01:46:58.273Z,22.30
2018-08-20T01:49:26.196Z,22.40
2018-08-20T01:51:54.185Z,22.30
2018-08-20T01:54:21.965Z,22.40
2018-08-20T01:56:49.748Z,22.30
2018-08-20T01:59:17.594Z,22.20
2018-08-20T02:01:45.376Z,22.20
2018-08-20T02:04:13.158Z,22.20
2018-08-20T02:06:40.980Z,22.20
2018-08-20T02:09:09.316Z,22.20
2018-08-20T02:11:37.140Z,22.20
2018-08-20T02:14:05.232Z,22.10
2018-08-20T02:16:33.056Z,22.10
2018-08-20T02:19:00.973Z,22.10
2018-08-20T02:21:28.749Z,22.10
2018-08-20T02:23:56.665Z,22.00
2018-08-20T02:26:24.448Z,22.00
2018-08-20T02:28:52.229Z,21.90
2018-08-20T02:31:19.981Z,21.90
2018-08-20T02:33:47.741Z,21.90
2018-08-20T02:36:15.520Z,21.90
2018-08-20T02:38:43.307Z,21.90
2018-08-20T02:41:11.056Z,21.90
2018-08-20T02:43:38.891Z,21.90
2018-08-20T02:46:06.726Z,21.90
2018-08-20T02:48:34.483Z,21.80
2018-08-20T02:51:02.264Z,21.70
2018-08-20T02:53:30.069Z,21.60
2018-08-20T02:55:57.963Z,21.70
2018-08-20T02:58:25.744Z,21.60
2018-08-20T03:00:53.597Z,21.60
2018-08-20T03:03:21.416Z,21.60
2018-08-20T03:05:49.217Z,21.60
2018-08-20T03:08:16.997Z,21.60
2018-08-20T03:10:44.947Z,21.50
2018-08-20T03:13:12.725Z,21.60
2018-08-20T03:15:40.559Z,21.60
2018-08-20T03:18:08.373Z,21.60
2018-08-20T03:20:36.196Z,21.70
2018-08-20T03:23:04.018Z,21.70
2018-08-20T03:25:31.825Z,21.80
2018-08-20T03:27:59.725Z,22.00
2018-08-20T03:30:27.485Z,21.90
2018-08-20T03:32:55.489Z,21.80
2018-08-20T03:35:23.246Z,21.70
2018-08-20T03:37:51.034Z,21.80
2018-08-20T03:40:18.821Z,21.70
2018-08-20T03:42:46.637Z,21.80
2018-08-20T03:45:14.482Z,21.90
2018-08-20T03:47:42.289Z,22.00
2018-08-20T03:50:12.957Z,21.90
2018-08-20T03:52:40.772Z,21.90
2018-08-20T03:55:08.589Z,21.90
2018-08-20T03:57:36.864Z,21.90
2018-08-20T04:00:05.462Z,22.00
2018-08-20T04:02:33.256Z,21.90
2018-08-20T04:05:01.007Z,22.00
2018-08-20T04:07:28.819Z,22.00
2018-08-20T04:09:56.600Z,21.80
2018-08-20T04:12:24.369Z,21.80
2018-08-20T04:14:52.161Z,21.80
2018-08-20T04:17:19.948Z,21.80
2018-08-20T04:19:47.741Z,21.70
2018-08-20T04:22:15.572Z,21.60
2018-08-20T04:24:43.333Z,21.70
2018-08-20T04:27:11.115Z,21.60
2018-08-20T04:29:38.912Z,21.60
2018-08-20T04:32:06.656Z,21.60
2018-08-20T04:34:35.278Z,21.50
2018-08-20T04:37:05.314Z,21.50
2018-08-20T04:39:33.073Z,21.50
2018-08-20T04:42:00.841Z,21.50
2018-08-20T04:44:28.664Z,21.60
2018-08-20T04:46:56.470Z,21.60
2018-08-20T04:49:24.257Z,21.80
2018-08-20T04:51:52.041Z,21.60
2018-08-20T04:54:19.806Z,21.60
2018-08-20T04:56:47.595Z,21.60
2018-08-20T04:59:15.351Z,21.60
2018-08-20T05:01:43.239Z,21.60
2018-08-20T05:04:11.007Z,21.60
2018-08-20T05:06:38.788Z,21.50
2018-08-20T05:09:07.216Z,21.50
2018-08-20T05:11:35.047Z,21.50
2018-08-20T05:14:03.217Z,21.60
2018-08-20T05:16:30.994Z,21.60
2018-08-20T05:18:58.964Z,21.60
2018-08-20T05:21:27.363Z,21.60
2018-08-20T05:23:55.106Z,21.60
2018-08-20T05:26:22.872Z,21.60
2018-08-20T05:28:50.629Z,21.70
2018-08-20T05:31:18.429Z,21.60
2018-08-20T05:33:47.262Z,21.60
2018-08-20T05:36:15.033Z,21.70
2018-08-20T05:38:42.849Z,21.60
2018-08-20T05:41:10.657Z,21.60
2018-08-20T05:43:38.628Z,21.70
2018-08-20T05:46:06.444Z,21.80
2018-08-20T05:48:34.338Z,21.80
2018-08-20T05:51:02.111Z,21.70
2018-08-20T05:53:29.982Z,21.90
2018-08-20T05:55:57.765Z,21.90
2018-08-20T05:58:25.785Z,22.10
2018-08-20T06:00:53.634Z,22.20
2018-08-20T06:03:21.437Z,22.30
2018-08-20T06:05:49.220Z,22.30
2018-08-20T06:08:17.008Z,22.30
2018-08-20T06:10:44.769Z,22.50
2018-08-20T06:13:12.601Z,22.50
2018-08-20T06:15:40.453Z,22.50
2018-08-20T06:18:08.503Z,22.60
2018-08-20T06:20:36.305Z,22.70
2018-08-20T06:23:04.163Z,22.80
2018-08-20T06:25:31.933Z,22.80
2018-08-20T06:27:59.753Z,22.90
2018-08-20T06:30:27.573Z,23.10
2018-08-20T06:32:55.376Z,23.20
2018-08-20T06:35:23.157Z,23.40
2018-08-20T06:37:50.909Z,23.70
2018-08-20T06:40:18.701Z,23.90
2018-08-20T06:42:46.516Z,24.20
2018-08-20T06:45:15.719Z,24.50
2018-08-20T06:47:44.411Z,25.10
2018-08-20T06:50:12.684Z,25.30
2018-08-20T06:52:41.548Z,25.50
2018-08-20T06:55:09.424Z,25.80
2018-08-20T06:57:37.233Z,26.20
2018-08-20T07:00:06.706Z,26.40
2018-08-20T07:02:34.492Z,26.70
2018-08-20T07:05:02.321Z,26.90
2018-08-20T07:07:30.139Z,27.20
2018-08-20T07:09:57.974Z,27.50
2018-08-20T07:12:25.801Z,27.70
2018-08-20T07:14:53.682Z,27.90
2018-08-20T07:17:21.506Z,27.90
2018-08-20T07:19:49.261Z,28.10
2018-08-20T07:22:17.181Z,28.20
2018-08-20T07:24:44.957Z,28.60
2018-08-20T07:27:12.755Z,28.70
2018-08-20T07:29:41.913Z,29.00
2018-08-20T07:32:11.126Z,29.10
2018-08-20T07:34:40.286Z,29.00
2018-08-20T07:37:09.901Z,29.00
2018-08-20T07:39:38.005Z,29.10
2018-08-20T07:42:05.873Z,29.50
2018-08-20T07:44:33.671Z,29.60
2018-08-20T07:47:01.433Z,30.00
2018-08-20T07:49:29.297Z,29.70
2018-08-20T07:51:57.175Z,29.50
2018-08-20T07:54:24.970Z,29.70
2018-08-20T07:56:52.769Z,29.70
2018-08-20T07:59:20.559Z,29.90
2018-08-20T08:01:48.421Z,29.80
2018-08-20T08:04:16.185Z,30.10
2018-08-20T08:06:44.020Z,30.70
2018-08-20T08:09:11.897Z,30.70
2018-08-20T08:11:39.674Z,31.10
2018-08-20T08:14:07.525Z,31.10
2018-08-20T08:16:36.726Z,31.40
2018-08-20T08:19:04.584Z,31.60
2018-08-20T08:21:32.441Z,31.80
2018-08-20T08:24:00.641Z,32.00
2018-08-20T08:26:28.548Z,32.40
2018-08-20T08:28:56.353Z,32.70
2018-08-20T08:31:24.132Z,33.10
2018-08-20T08:33:52.245Z,33.30
2018-08-20T08:36:20.044Z,33.40
2018-08-20T08:38:47.942Z,33.60
2018-08-20T08:41:15.778Z,33.90
2018-08-20T08:43:43.622Z,34.00
2018-08-20T08:46:11.436Z,34.40
2018-08-20T08:48:39.210Z,34.60
2018-08-20T08:51:07.098Z,34.90
2018-08-20T08:53:34.908Z,34.90
2018-08-20T08:56:02.773Z,34.90
2018-08-20T08:58:30.749Z,34.80
2018-08-20T09:00:58.645Z,34.90
2018-08-20T09:03:29.580Z,34.90
2018-08-20T09:05:57.740Z,35.00
2018-08-20T09:08:25.489Z,34.80
2018-08-20T09:10:53.344Z,34.80
2018-08-20T09:13:21.135Z,34.80
2018-08-20T09:15:49.009Z,35.00
2018-08-20T09:18:16.865Z,35.10
2018-08-20T09:20:44.780Z,35.30
2018-08-20T09:23:12.597Z,35.50
2018-08-20T09:25:40.377Z,35.60
2018-08-20T09:28:08.234Z,35.60
2018-08-20T09:30:36.077Z,35.80
2018-08-20T09:33:03.909Z,36.00
2018-08-20T09:35:31.758Z,36.10
2018-08-20T09:38:02.293Z,36.10
2018-08-20T09:40:30.112Z,36.30
2018-08-20T09:42:57.862Z,36.40
2018-08-20T09:45:26.325Z,36.50
2018-08-20T09:47:54.129Z,36.60
2018-08-20T09:50:21.973Z,36.80
2018-08-20T09:52:49.773Z,36.80
2018-08-20T09:55:24.037Z,37.00
2018-08-20T09:57:51.888Z,37.10
2018-08-20T10:00:26.492Z,37.30
2018-08-20T10:02:54.273Z,37.50
2018-08-20T10:05:22.029Z,37.70
2018-08-20T10:07:49.821Z,37.80
2018-08-20T10:10:17.592Z,37.80
2018-08-20T10:12:45.868Z,37.80
2018-08-20T10:15:14.181Z,37.80
2018-08-20T10:17:42.520Z,37.90
2018-08-20T10:20:12.005Z,38.00
2018-08-20T10:22:39.960Z,38.20
2018-08-20T10:25:07.860Z,38.30
2018-08-20T10:27:35.632Z,38.30
2018-08-20T10:30:04.027Z,38.30
2018-08-20T10:32:32.079Z,38.30
2018-08-20T10:35:01.818Z,38.40
2018-08-20T10:37:29.893Z,38.50
2018-08-20T10:39:57.789Z,38.50
2018-08-20T10:42:25.528Z,38.50
2018-08-20T10:44:57.822Z,38.60
2018-08-20T10:47:25.749Z,38.70
2018-08-20T10:49:53.798Z,38.70
2018-08-20T10:52:28.638Z,38.80
2018-08-20T10:54:56.570Z,39.00
2018-08-20T10:57:24.441Z,39.00
2018-08-20T10:59:52.274Z,39.00
2018-08-20T11:02:20.171Z,39.10
2018-08-20T11:04:51.387Z,39.10
2018-08-20T11:07:19.205Z,39.00
2018-08-20T11:09:47.037Z,39.10
2018-08-20T11:12:14.945Z,39.10
2018-08-20T11:14:42.792Z,39.20
2018-08-20T11:17:10.569Z,39.30
2018-08-20T11:19:38.454Z,39.40
2018-08-20T11:22:06.301Z,39.40
2018-08-20T11:24:34.222Z,39.50
2018-08-20T11:27:02.223Z,39.70
2018-08-20T11:29:34.097Z,39.70
2018-08-20T11:32:01.925Z,39.80
2018-08-20T11:34:29.889Z,40.20
2018-08-20T11:36:57.761Z,40.10
2018-08-20T11:39:26.923Z,40.00
2018-08-20T11:41:54.993Z,39.90
2018-08-20T11:44:22.805Z,40.00
2018-08-20T11:46:50.645Z,40.10
2018-08-20T11:49:18.466Z,40.10
2018-08-20T11:51:46.265Z,40.50
2018-08-20T11:54:14.165Z,40.30
2018-08-20T11:56:42.258Z,40.30
2018-08-20T11:59:10.173Z,40.40
2018-08-20T12:01:37.919Z,40.50
2018-08-20T12:04:05.742Z,40.70
2018-08-20T12:06:33.560Z,40.80
2018-08-20T12:09:01.424Z,40.80
2018-08-20T12:11:29.189Z,40.90
2018-08-20T12:13:57.005Z,41.00
2018-08-20T12:16:24.864Z,41.00
2018-08-20T12:18:52.685Z,40.90
2018-08-20T12:21:20.475Z,40.90
2018-08-20T12:23:49.437Z,41.10
2018-08-20T12:26:17.205Z,40.90
2018-08-20T12:28:44.981Z,40.80
2018-08-20T12:31:12.777Z,40.70
2018-08-20T12:33:44.472Z,40.70
2018-08-20T12:36:12.253Z,40.60
2018-08-20T12:38:40.030Z,40.70
2018-08-20T12:41:08.677Z,40.70
2018-08-20T12:43:36.481Z,40.90
2018-08-20T12:46:04.253Z,41.30
2018-08-20T12:48:32.005Z,41.10
2018-08-20T12:50:59.822Z,41.10
2018-08-20T12:53:27.578Z,41.40
2018-08-20T12:55:55.593Z,41.30
2018-08-20T12:58:23.422Z,41.30
2018-08-20T13:00:51.535Z,41.40
2018-08-20T13:03:19.378Z,41.40
2018-08-20T13:05:47.221Z,41.60
2018-08-20T13:08:15.656Z,41.60
2018-08-20T13:10:43.750Z,41.70
2018-08-20T13:13:11.790Z,41.70
2018-08-20T13:15:39.575Z,41.60
2018-08-20T13:18:07.629Z,41.60
2018-08-20T13:20:36.689Z,41.60
2018-08-20T13:23:04.549Z,41.40
2018-08-20T13:25:32.358Z,41.40
2018-08-20T13:28:00.289Z,41.60
2018-08-20T13:30:28.362Z,41.30
2018-08-20T13:32:56.136Z,41.20
2018-08-20T13:35:23.932Z,41.20
2018-08-20T13:37:51.804Z,41.10
2018-08-20T13:40:19.637Z,41.00
2018-08-20T13:42:47.393Z,40.90
2018-08-20T13:45:15.206Z,40.70
2018-08-20T13:47:42.989Z,40.50
2018-08-20T13:50:13.758Z,40.50
2018-08-20T13:52:42.808Z,40.40
2018-08-20T13:55:10.623Z,40.50
2018-08-20T13:57:48.487Z,40.40
2018-08-20T14:00:19.805Z,40.30
2018-08-20T14:02:47.727Z,40.20
2018-08-20T14:05:16.305Z,40.30
2018-08-20T14:07:44.669Z,40.10
2018-08-20T14:10:13.809Z,39.90
2018-08-20T14:12:42.301Z,39.80
2018-08-20T14:15:11.220Z,39.60
2018-08-20T14:17:40.033Z,39.40
2018-08-20T14:20:09.765Z,39.30
2018-08-20T14:22:37.863Z,39.20
2018-08-20T14:25:06.031Z,39.10
2018-08-20T14:27:33.887Z,39.00
2018-08-20T14:30:01.720Z,38.80
2018-08-20T14:32:30.097Z,38.60
2018-08-20T14:34:58.388Z,38.40
2018-08-20T14:37:26.297Z,38.20
2018-08-20T14:39:54.085Z,38.00
2018-08-20T14:42:21.905Z,37.80
2018-08-20T14:44:49.760Z,37.60
2018-08-20T14:47:18.869Z,37.40
2018-08-20T14:49:46.650Z,37.20
2018-08-20T14:52:14.493Z,36.90
2018-08-20T14:54:43.358Z,36.70
2018-08-20T14:57:11.422Z,36.50
2018-08-20T14:59:39.226Z,36.20
2018-08-20T15:02:07.082Z,36.00
2018-08-20T15:04:34.949Z,35.80
2018-08-20T15:07:05.685Z,35.60
2018-08-20T15:09:33.547Z,35.40
2018-08-20T15:12:02.596Z,35.30
2018-08-20T15:14:30.697Z,35.10
2018-08-20T15:16:58.508Z,35.00
2018-08-20T15:19:26.322Z,34.90
2018-08-20T15:21:54.197Z,34.80
2018-08-20T15:24:22.057Z,34.70
2018-08-20T15:26:50.342Z,34.60
2018-08-20T15:29:19.909Z,34.60
2018-08-20T15:31:47.853Z,34.50
2018-08-20T15:34:16.069Z,34.40
2018-08-20T15:36:43.905Z,34.30
2018-08-20T15:39:13.953Z,34.30
2018-08-20T15:41:41.745Z,34.20
2018-08-20T15:44:10.169Z,34.10
2018-08-20T15:46:37.945Z,34.00
2018-08-20T15:49:06.141Z,33.90
2018-08-20T15:51:33.958Z,33.90
2018-08-20T15:54:01.853Z,33.80
2018-08-20T15:56:29.641Z,33.70
2018-08-20T15:58:57.501Z,33.60
2018-08-20T16:01:25.352Z,33.60
2018-08-20T16:03:53.146Z,33.50
2018-08-20T16:06:21.079Z,33.50
2018-08-20T16:08:48.973Z,33.40
2018-08-20T16:11:16.790Z,33.40
2018-08-20T16:13:44.644Z,33.40
2018-08-20T16:16:12.554Z,33.30
2018-08-20T16:18:40.378Z,33.20
2018-08-20T16:21:08.193Z,33.10
2018-08-20T16:23:35.961Z,33.00
2018-08-20T16:26:03.815Z,33.00
2018-08-20T16:28:33.749Z,32.90
2018-08-20T16:31:02.854Z,32.90
2018-08-20T16:33:30.697Z,32.70
2018-08-20T16:35:58.661Z,32.70
2018-08-20T16:38:26.553Z,32.70
2018-08-20T16:40:54.404Z,32.60
2018-08-20T16:43:22.216Z,32.60
2018-08-20T16:45:50.085Z,32.60
2018-08-20T16:48:17.957Z,32.50
2018-08-20T16:50:45.914Z,32.50
2018-08-20T16:53:13.932Z,32.40
2018-08-20T16:55:41.801Z,32.30
2018-08-20T16:58:09.692Z,32.30
2018-08-20T17:00:37.532Z,32.20
2018-08-20T17:03:10.066Z,32.10
2018-08-20T17:05:43.419Z,32.00
2018-08-20T17:08:12.692Z,31.90
2018-08-20T17:10:40.482Z,31.80
2018-08-20T17:13:08.310Z,31.70
2018-08-20T17:15:36.090Z,31.70
2018-08-20T17:18:06.177Z,31.60
2018-08-20T17:20:35.225Z,31.50
2018-08-20T17:23:14.239Z,31.40
2018-08-20T17:25:42.232Z,31.40
2018-08-20T17:28:10.049Z,31.30
2018-08-20T17:30:37.876Z,31.30
2018-08-20T17:33:06.285Z,31.20
2018-08-20T17:35:35.886Z,31.10
2018-08-20T17:38:05.049Z,31.00
2018-08-20T17:40:35.781Z,31.10
2018-08-20T17:43:03.901Z,30.90
2018-08-20T17:45:32.037Z,30.80
2018-08-20T17:47:59.977Z,30.70
2018-08-20T17:50:44.607Z,30.60
2018-08-20T17:53:12.465Z,30.50
2018-08-20T17:55:40.296Z,30.50
2018-08-20T17:58:08.265Z,30.40
2018-08-20T18:00:42.317Z,30.30
2018-08-20T18:03:19.437Z,30.30
2018-08-20T18:05:57.509Z,30.20
2018-08-20T18:08:26.461Z,30.10
2018-08-20T18:10:54.425Z,30.00
2018-08-20T18:13:50.564Z,29.90
2018-08-20T18:16:19.633Z,29.80
2018-08-20T18:18:50.498Z,29.70
2018-08-20T18:21:18.506Z,29.60
2018-08-20T18:23:46.462Z,29.60
2018-08-20T18:26:14.554Z,29.50
2018-08-20T18:28:47.869Z,29.40
2018-08-20T18:31:19.993Z,29.30
2018-08-20T18:33:48.372Z,29.20
2018-08-20T18:36:19.590Z,29.10
2018-08-20T18:38:51.713Z,29.10
2018-08-20T18:41:21.056Z,29.00
2018-08-20T18:43:48.885Z,28.80
2018-08-20T18:46:16.685Z,28.70
2018-08-20T18:48:44.457Z,28.60
2018-08-20T18:51:15.931Z,28.50
2018-08-20T18:53:43.989Z,28.30
2018-08-20T18:56:13.230Z,28.20
2018-08-20T18:58:41.680Z,28.10
2018-08-20T19:01:09.945Z,27.90
2018-08-20T19:03:44.569Z,27.70
2018-08-20T19:06:12.944Z,27.60
2018-08-20T19:08:41.373Z,27.50
2018-08-20T19:11:09.677Z,27.40
2018-08-20T19:13:37.569Z,27.40
2018-08-20T19:16:25.697Z,27.30
2018-08-20T19:18:53.645Z,27.20
2018-08-20T19:21:25.793Z,27.10
2018-08-20T19:23:54.150Z,27.10
2018-08-20T19:26:22.037Z,27.00
2018-08-20T19:28:49.833Z,27.00
2018-08-20T19:31:17.665Z,27.00
2018-08-20T19:33:45.488Z,26.90
2018-08-20T19:36:13.320Z,27.00
2018-08-20T19:38:41.112Z,26.90
2018-08-20T19:41:13.054Z,26.80
2018-08-20T19:43:48.774Z,26.70
2018-08-20T19:46:28.760Z,26.60
2018-08-20T19:49:01.277Z,26.60
2018-08-20T19:51:31.349Z,26.50
2018-08-20T19:53:59.257Z,26.50
2018-08-20T19:56:30.377Z,26.60
2018-08-20T19:58:58.208Z,26.60
2018-08-20T20:01:26.141Z,26.60
2018-08-20T20:03:54.170Z,26.60
2018-08-20T20:06:22.290Z,26.70
2018-08-20T20:08:50.249Z,26.60
2018-08-20T20:11:24.851Z,26.50
2018-08-20T20:13:56.997Z,26.40
2018-08-20T20:16:25.385Z,26.30
2018-08-20T20:18:53.602Z,26.20
2018-08-20T20:21:21.966Z,26.20
2018-08-20T20:23:49.843Z,26.20
2018-08-20T20:26:35.970Z,26.30
2018-08-20T20:29:04.637Z,26.30
2018-08-20T20:31:32.480Z,26.20
2018-08-20T20:37:03.121Z,26.20
2018-08-20T20:39:31.039Z,26.00
2018-08-20T20:41:59.901Z,26.00
2018-08-20T20:44:27.723Z,25.90
2018-08-20T20:46:55.511Z,25.90
2018-08-20T20:49:23.384Z,25.90
2018-08-20T20:51:51.420Z,25.80
2018-08-20T20:54:19.476Z,25.70
2018-08-20T20:56:48.044Z,25.70
2018-08-20T20:59:15.929Z,25.80
2018-08-20T21:01:43.886Z,25.70
2018-08-20T21:04:11.997Z,25.70
2018-08-20T21:06:41.000Z,25.70
2018-08-20T21:09:10.905Z,25.80
2018-08-20T21:11:38.943Z,25.80
2018-08-20T21:14:06.938Z,25.90
2018-08-20T21:16:34.657Z,25.80
2018-08-20T21:19:03.972Z,25.70
2018-08-20T21:21:32.427Z,25.70
2018-08-20T21:24:00.316Z,25.60
2018-08-20T21:26:28.173Z,25.40
2018-08-20T21:28:56.268Z,25.30
2018-08-20T21:31:25.468Z,25.20
2018-08-20T21:33:55.546Z,25.30
2018-08-20T21:36:25.596Z,25.30
2018-08-20T21:38:53.415Z,25.10
2018-08-20T21:41:21.756Z,25.10
2018-08-20T21:43:49.851Z,25.00
2018-08-20T21:46:17.699Z,25.10
2018-08-20T21:48:45.743Z,25.00
2018-08-20T21:51:28.793Z,25.10
2018-08-20T21:53:56.958Z,25.10
2018-08-20T21:56:29.807Z,25.00
2018-08-20T21:58:59.708Z,25.00
2018-08-20T22:04:32.078Z,25.00
2018-08-20T22:07:00.342Z,25.10
2018-08-20T22:09:30.805Z,25.10
2018-08-20T22:11:58.925Z,25.10
2018-08-20T22:14:26.921Z,24.90
2018-08-20T22:16:54.925Z,24.70
2018-08-20T22:19:22.877Z,24.70
2018-08-20T22:21:50.736Z,24.60
2018-08-20T22:24:18.609Z,24.40
2018-08-20T22:26:56.128Z,24.40
2018-08-20T22:29:24.452Z,24.40
2018-08-20T22:31:55.184Z,24.30
2018-08-20T22:34:24.429Z,24.30
2018-08-20T22:36:56.937Z,24.20
2018-08-20T22:39:24.793Z,24.20
2018-08-20T22:41:52.712Z,24.10
2018-08-20T22:44:20.580Z,24.10
2018-08-20T22:46:48.456Z,24.10
2018-08-20T22:49:16.588Z,24.00
2018-08-20T22:51:46.873Z,24.00
2018-08-20T22:54:15.708Z,23.90
2018-08-20T22:56:43.929Z,24.00
2018-08-20T22:59:12.641Z,24.00
2018-08-20T23:01:40.705Z,24.10
2018-08-20T23:04:12.593Z,24.00
2018-08-20T23:06:41.197Z,23.80
2018-08-20T23:09:24.096Z,23.80
2018-08-20T23:11:52.198Z,23.70
2018-08-20T23:14:20.101Z,23.60
2018-08-20T23:16:50.040Z,23.50
2018-08-20T23:19:17.977Z,23.60
2018-08-20T23:21:46.806Z,23.50
2018-08-20T23:24:18.150Z,23.50
2018-08-20T23:26:46.049Z,23.50
2018-08-20T23:29:14.009Z,23.50
2018-08-20T23:31:41.836Z,23.50
2018-08-20T23:34:14.686Z,23.50
2018-08-20T23:36:43.080Z,23.50
2018-08-20T23:39:16.534Z,23.60
2018-08-20T23:41:44.580Z,23.60
2018-08-20T23:44:14.903Z,23.90
2018-08-20T23:46:44.756Z,23.70
2018-08-20T23:49:12.677Z,23.60
2018-08-20T23:51:40.764Z,23.50
2018-08-20T23:54:09.491Z,23.40
2018-08-20T23:56:37.385Z,23.40
2018-08-20T23:59:05.228Z,23.30
